createdAt,value
2022-12-16T00:00:38.310Z,1009.44
2022-12-16T00:02:35.962Z,1009.34
2022-12-16T00:04:36.180Z,1009.34
2022-12-16T00:06:35.317Z,1009.3
2022-12-16T00:08:35.801Z,1009.3
2022-12-16T00:10:35.846Z,1009.31
2022-12-16T00:12:35.233Z,1009.31
2022-12-16T00:14:35.501Z,1009.24
2022-12-16T00:16:36.352Z,1009.24
2022-12-16T00:18:35.277Z,1009.4
2022-12-16T00:20:35.941Z,1009.4
2022-12-16T00:22:35.305Z,1009.39
2022-12-16T00:24:35.434Z,1009.39
2022-12-16T00:26:35.841Z,1009.41
2022-12-16T00:28:35.220Z,1009.41
2022-12-16T00:30:35.634Z,1009.46
2022-12-16T00:32:35.205Z,1009.46
2022-12-16T00:34:35.513Z,1009.41
2022-12-16T00:36:34.989Z,1009.41
2022-12-16T00:38:35.272Z,1009.43
2022-12-16T00:40:35.687Z,1009.43
2022-12-16T00:42:35.063Z,1009.37
2022-12-16T00:44:35.291Z,1009.37
2022-12-16T00:46:36.065Z,1009.5
2022-12-16T00:48:35.143Z,1009.5
2022-12-16T00:50:35.515Z,1009.51
2022-12-16T00:52:35.842Z,1009.51
2022-12-16T00:54:35.301Z,1009.54
2022-12-16T00:56:35.587Z,1009.54
2022-12-16T00:58:35.746Z,1009.59
2022-12-16T01:00:38.582Z,1009.59
2022-12-16T01:02:36.873Z,1009.59
2022-12-16T01:04:35.335Z,1009.59
2022-12-16T01:06:35.617Z,1009.59
2022-12-16T01:08:35.837Z,1009.59
2022-12-16T01:10:35.292Z,1009.64
2022-12-16T01:12:35.507Z,1009.64
2022-12-16T01:14:35.803Z,1009.62
2022-12-16T01:16:35.518Z,1009.62
2022-12-16T01:18:35.384Z,1009.52
2022-12-16T01:20:35.550Z,1009.52
2022-12-16T01:22:35.979Z,1009.61
2022-12-16T01:24:35.408Z,1009.61
2022-12-16T01:26:35.569Z,1009.74
2022-12-16T01:28:35.850Z,1009.74
2022-12-16T01:30:35.271Z,1009.83
2022-12-16T01:32:36.131Z,1009.83
2022-12-16T01:34:36.010Z,1009.77
2022-12-16T01:36:35.393Z,1009.77
2022-12-16T01:38:35.763Z,1009.91
2022-12-16T01:40:35.262Z,1009.91
2022-12-16T01:42:35.735Z,1009.94
2022-12-16T01:44:35.780Z,1009.94
2022-12-16T01:46:35.581Z,1010.09
2022-12-16T01:48:35.610Z,1010.09
2022-12-16T01:50:36.550Z,1010.18
2022-12-16T01:52:35.579Z,1010.18
2022-12-16T01:54:36.025Z,1010.09
2022-12-16T01:56:35.311Z,1010.09
2022-12-16T01:58:35.684Z,1010.22
2022-12-16T02:00:38.359Z,1010.22
2022-12-16T02:02:35.884Z,1010.27
2022-12-16T02:04:35.411Z,1010.27
2022-12-16T02:06:35.636Z,1010.34
2022-12-16T02:08:35.119Z,1010.34
2022-12-16T02:10:35.400Z,1010.27
2022-12-16T02:12:35.839Z,1010.27
2022-12-16T02:14:35.231Z,1010.38
2022-12-16T02:16:40.121Z,1010.38
2022-12-16T02:18:35.078Z,1010.47
2022-12-16T02:20:35.586Z,1010.47
2022-12-16T02:22:35.742Z,1010.38
2022-12-16T02:24:35.259Z,1010.38
2022-12-16T02:26:35.554Z,1010.44
2022-12-16T02:28:35.009Z,1010.44
2022-12-16T02:30:35.444Z,1010.41
2022-12-16T02:32:35.648Z,1010.41
2022-12-16T02:34:35.784Z,1010.49
2022-12-16T02:36:35.956Z,1010.49
2022-12-16T02:38:35.073Z,1010.53
2022-12-16T02:40:35.495Z,1010.53
2022-12-16T02:42:35.862Z,1010.66
2022-12-16T02:44:35.077Z,1010.66
2022-12-16T02:46:35.970Z,1010.77
2022-12-16T02:48:35.792Z,1010.77
2022-12-16T02:50:35.143Z,1010.66
2022-12-16T02:52:35.305Z,1010.66
2022-12-16T02:54:35.545Z,1010.67
2022-12-16T02:56:35.765Z,1010.64
2022-12-16T02:58:34.962Z,1010.64
2022-12-16T03:00:36.356Z,1010.7
2022-12-16T03:02:37.058Z,1010.7
2022-12-16T03:04:35.323Z,1010.85
2022-12-16T03:06:35.530Z,1010.85
2022-12-16T03:08:35.748Z,1010.85
2022-12-16T03:10:36.158Z,1010.85
2022-12-16T03:12:35.191Z,1010.93
2022-12-16T03:14:35.499Z,1010.93
2022-12-16T03:16:36.040Z,1010.88
2022-12-16T03:18:35.943Z,1010.88
2022-12-16T03:20:35.332Z,1010.95
2022-12-16T03:22:35.459Z,1010.95
2022-12-16T03:24:35.937Z,1010.88
2022-12-16T03:26:35.108Z,1010.88
2022-12-16T03:28:35.328Z,1010.94
2022-12-16T03:30:36.059Z,1010.94
2022-12-16T03:32:35.094Z,1010.97
2022-12-16T03:34:35.202Z,1010.97
2022-12-16T03:36:35.264Z,1011.07
2022-12-16T03:38:35.540Z,1011.07
2022-12-16T03:40:35.792Z,1011.08
2022-12-16T03:42:35.052Z,1011.08
2022-12-16T03:44:35.566Z,1011.13
2022-12-16T03:46:36.292Z,1011.13
2022-12-16T03:48:35.971Z,1011.15
2022-12-16T03:50:35.128Z,1011.15
2022-12-16T03:52:35.469Z,1011.18
2022-12-16T03:54:35.663Z,1011.18
2022-12-16T03:56:35.936Z,1011.09
2022-12-16T03:58:35.236Z,1011.09
2022-12-16T04:00:39.291Z,1011.2
2022-12-16T04:02:37.192Z,1011.2
2022-12-16T04:04:35.264Z,1011.21
2022-12-16T04:06:35.426Z,1011.21
2022-12-16T04:08:36.237Z,1011.17
2022-12-16T04:10:35.238Z,1011.17
2022-12-16T04:12:35.492Z,1011.24
2022-12-16T04:14:35.657Z,1011.24
2022-12-16T04:16:36.334Z,1011.23
2022-12-16T04:18:35.498Z,1011.23
2022-12-16T04:20:35.798Z,1011.24
2022-12-16T04:22:35.093Z,1011.24
2022-12-16T04:24:35.531Z,1011.28
2022-12-16T04:26:35.953Z,1011.28
2022-12-16T04:28:35.021Z,1011.27
2022-12-16T04:30:35.395Z,1011.27
2022-12-16T04:32:35.640Z,1011.26
2022-12-16T04:34:35.150Z,1011.26
2022-12-16T04:36:35.383Z,1011.39
2022-12-16T04:38:35.822Z,1011.39
2022-12-16T04:40:35.310Z,1011.39
2022-12-16T04:42:35.919Z,1011.39
2022-12-16T04:44:36.358Z,1011.45
2022-12-16T04:46:36.385Z,1011.45
2022-12-16T04:48:35.408Z,1011.59
2022-12-16T04:50:35.692Z,1011.59
2022-12-16T04:52:35.071Z,1011.6
2022-12-16T04:54:35.326Z,1011.6
2022-12-16T04:56:38.560Z,1011.68
2022-12-16T04:58:35.888Z,1011.68
2022-12-16T05:00:38.351Z,1011.58
2022-12-16T05:02:36.193Z,1011.58
2022-12-16T05:04:35.702Z,1011.67
2022-12-16T05:06:35.935Z,1011.67
2022-12-16T05:08:35.096Z,1011.76
2022-12-16T05:10:35.539Z,1011.76
2022-12-16T05:12:35.845Z,1011.85
2022-12-16T05:14:35.163Z,1011.85
2022-12-16T05:16:35.928Z,1011.86
2022-12-16T05:18:35.802Z,1011.86
2022-12-16T05:20:35.155Z,1011.87
2022-12-16T05:22:35.658Z,1011.87
2022-12-16T05:24:35.160Z,1011.86
2022-12-16T05:26:35.395Z,1011.86
2022-12-16T05:28:35.759Z,1012.03
2022-12-16T05:30:40.395Z,1012.03
2022-12-16T05:32:35.613Z,1012.04
2022-12-16T05:34:35.080Z,1012.04
2022-12-16T05:36:35.270Z,1012.03
2022-12-16T05:38:35.558Z,1012.03
2022-12-16T05:40:35.838Z,1012.08
2022-12-16T05:42:35.201Z,1012.08
2022-12-16T05:44:35.331Z,1012.17
2022-12-16T05:46:36.649Z,1012.17
2022-12-16T05:48:35.204Z,1012.23
2022-12-16T05:50:35.584Z,1012.23
2022-12-16T05:52:35.752Z,1012.25
2022-12-16T05:54:35.189Z,1012.25
2022-12-16T05:56:35.403Z,1012.18
2022-12-16T05:58:35.682Z,1012.18
2022-12-16T06:00:39.120Z,1012.24
2022-12-16T06:02:36.213Z,1012.24
2022-12-16T06:04:40.566Z,1012.21
2022-12-16T06:06:35.925Z,1012.21
2022-12-16T06:08:35.220Z,1012.28
2022-12-16T06:10:35.437Z,1012.28
2022-12-16T06:12:35.792Z,1012.33
2022-12-16T06:14:36.001Z,1012.38
2022-12-16T06:16:42.605Z,1012.38
2022-12-16T06:18:35.785Z,1012.3
2022-12-16T06:20:36.255Z,1012.3
2022-12-16T06:22:35.136Z,1012.39
2022-12-16T06:24:35.335Z,1012.39
2022-12-16T06:26:35.924Z,1012.47
2022-12-16T06:28:35.923Z,1012.47
2022-12-16T06:30:35.188Z,1012.5
2022-12-16T06:32:35.999Z,1012.5
2022-12-16T06:34:35.920Z,1012.58
2022-12-16T06:36:35.230Z,1012.58
2022-12-16T06:38:35.632Z,1012.41
2022-12-16T06:40:36.083Z,1012.41
2022-12-16T06:42:35.193Z,1012.62
2022-12-16T06:44:35.532Z,1012.62
2022-12-16T06:46:36.290Z,1012.83
2022-12-16T06:48:35.417Z,1012.83
2022-12-16T06:50:35.607Z,1012.8
2022-12-16T06:52:35.221Z,1012.8
2022-12-16T06:54:35.537Z,1012.81
2022-12-16T06:56:35.657Z,1012.81
2022-12-16T06:58:37.096Z,1012.78
2022-12-16T07:00:38.159Z,1012.78
2022-12-16T07:02:36.657Z,1012.91
2022-12-16T07:04:35.135Z,1012.91
2022-12-16T07:06:35.379Z,1012.98
2022-12-16T07:08:35.931Z,1012.98
2022-12-16T07:10:35.263Z,1013.01
2022-12-16T07:12:35.549Z,1013.01
2022-12-16T07:14:35.801Z,1013.09
2022-12-16T07:16:35.694Z,1013.09
2022-12-16T07:18:35.417Z,1013.12
2022-12-16T07:20:35.639Z,1013.12
2022-12-16T07:22:35.860Z,1013.19
2022-12-16T07:24:35.131Z,1013.19
2022-12-16T07:26:35.397Z,1013.32
2022-12-16T07:28:38.519Z,1013.32
2022-12-16T07:30:35.142Z,1013.32
2022-12-16T07:32:35.638Z,1013.32
2022-12-16T07:34:40.333Z,1013.36
2022-12-16T07:36:35.751Z,1013.36
2022-12-16T07:38:35.946Z,1013.48
2022-12-16T07:40:35.141Z,1013.48
2022-12-16T07:42:35.357Z,1013.46
2022-12-16T07:44:35.574Z,1013.46
2022-12-16T07:46:36.015Z,1013.48
2022-12-16T07:48:35.801Z,1013.48
2022-12-16T07:50:36.044Z,1013.61
2022-12-16T07:52:35.388Z,1013.61
2022-12-16T07:54:35.534Z,1013.62
2022-12-16T07:56:35.920Z,1013.62
2022-12-16T07:58:35.065Z,1013.63
2022-12-16T08:00:39.414Z,1013.63
2022-12-16T08:02:36.235Z,1013.79
2022-12-16T08:04:35.630Z,1013.79
2022-12-16T08:06:40.222Z,1013.88
2022-12-16T08:08:35.140Z,1013.88
2022-12-16T08:10:35.466Z,1013.91
2022-12-16T08:12:35.761Z,1013.91
2022-12-16T08:14:35.249Z,1013.98
2022-12-16T08:16:35.726Z,1013.98
2022-12-16T08:18:35.695Z,1013.86
2022-12-16T08:20:35.886Z,1013.86
2022-12-16T08:22:35.322Z,1014.02
2022-12-16T08:24:35.581Z,1014.02
2022-12-16T08:26:35.734Z,1013.92
2022-12-16T08:28:36.096Z,1013.92
2022-12-16T08:30:35.287Z,1013.95
2022-12-16T08:32:35.864Z,1013.95
2022-12-16T08:34:35.923Z,1013.91
2022-12-16T08:36:35.215Z,1013.91
2022-12-16T08:38:36.758Z,1013.99
2022-12-16T08:41:08.400Z,1013.99
2022-12-16T08:42:36.043Z,1014.02
2022-12-16T08:44:35.201Z,1014.02
2022-12-16T08:46:35.895Z,1014.02
2022-12-16T08:48:35.591Z,1014.02
2022-12-16T08:50:36.654Z,1013.98
2022-12-16T08:52:35.376Z,1013.98
2022-12-16T08:54:35.382Z,1014.12
2022-12-16T08:56:35.651Z,1014.12
2022-12-16T08:58:35.044Z,1014.12
2022-12-16T09:00:38.569Z,1014.12
2022-12-16T09:02:36.878Z,1014.18
2022-12-16T09:04:36.069Z,1014.18
2022-12-16T09:06:40.087Z,1014.25
2022-12-16T09:08:35.634Z,1014.25
2022-12-16T09:10:39.779Z,1014.28
2022-12-16T09:12:35.559Z,1014.28
2022-12-16T09:14:35.700Z,1014.2
2022-12-16T09:16:42.107Z,1014.2
2022-12-16T09:18:35.365Z,1014.34
2022-12-16T09:20:35.578Z,1014.34
2022-12-16T09:22:35.880Z,1014.5
2022-12-16T09:24:35.135Z,1014.5
2022-12-16T09:26:35.695Z,1014.56
2022-12-16T09:28:35.759Z,1014.56
2022-12-16T09:30:35.228Z,1014.51
2022-12-16T09:32:35.399Z,1014.51
2022-12-16T09:34:35.683Z,1014.53
2022-12-16T09:36:35.738Z,1014.64
2022-12-16T09:38:35.263Z,1014.64
2022-12-16T09:40:35.397Z,1014.77
2022-12-16T09:42:35.579Z,1014.77
2022-12-16T09:44:35.875Z,1014.71
2022-12-16T09:46:35.583Z,1014.71
2022-12-16T09:48:35.533Z,1014.89
2022-12-16T09:50:35.827Z,1014.89
2022-12-16T09:52:41.134Z,1014.98
2022-12-16T09:54:35.480Z,1014.98
2022-12-16T09:56:35.846Z,1014.97
2022-12-16T09:58:35.341Z,1014.97
2022-12-16T10:00:41.177Z,1014.95
2022-12-16T10:02:36.996Z,1014.95
2022-12-16T10:04:35.627Z,1015.11
2022-12-16T10:06:35.977Z,1015.11
2022-12-16T10:08:41.582Z,1015.2
2022-12-16T10:10:35.412Z,1015.2
2022-12-16T10:12:35.626Z,1015.13
2022-12-16T10:14:41.909Z,1015.13
2022-12-16T10:16:36.517Z,1015.15
2022-12-16T10:18:35.674Z,1015.15
2022-12-16T10:20:43.102Z,1015.3
2022-12-16T10:22:35.844Z,1015.3
2022-12-16T10:24:35.925Z,1015.23
2022-12-16T10:26:35.200Z,1015.23
2022-12-16T10:28:35.741Z,1015.31
2022-12-16T10:30:35.096Z,1015.31
2022-12-16T10:32:35.486Z,1015.3
2022-12-16T10:34:35.728Z,1015.3
2022-12-16T10:36:36.065Z,1015.41
2022-12-16T10:38:35.344Z,1015.41
2022-12-16T10:40:35.501Z,1015.42
2022-12-16T10:42:35.996Z,1015.42
2022-12-16T10:44:35.161Z,1015.37
2022-12-16T10:46:35.852Z,1015.37
2022-12-16T10:48:36.265Z,1015.3
2022-12-16T10:50:35.833Z,1015.3
2022-12-16T10:52:42.940Z,1015.34
2022-12-16T10:54:35.871Z,1015.34
2022-12-16T10:56:35.194Z,1015.37
2022-12-16T10:58:35.750Z,1015.37
2022-12-16T11:00:38.588Z,1015.42
2022-12-16T11:02:36.460Z,1015.42
2022-12-16T11:04:35.789Z,1015.43
2022-12-16T11:06:36.014Z,1015.43
2022-12-16T11:08:35.087Z,1015.45
2022-12-16T11:10:35.428Z,1015.45
2022-12-16T11:12:35.620Z,1015.33
2022-12-16T11:14:35.906Z,1015.33
2022-12-16T11:16:35.551Z,1015.43
2022-12-16T11:18:35.230Z,1015.43
2022-12-16T11:20:35.585Z,1015.4
2022-12-16T11:22:35.788Z,1015.4
2022-12-16T11:24:34.954Z,1015.42
2022-12-16T11:26:37.437Z,1015.42
2022-12-16T11:28:35.740Z,1015.3
2022-12-16T11:30:35.102Z,1015.3
2022-12-16T11:32:35.393Z,1015.53
2022-12-16T11:34:35.846Z,1015.53
2022-12-16T11:36:35.215Z,1015.45
2022-12-16T11:38:35.570Z,1015.45
2022-12-16T11:40:35.901Z,1015.61
2022-12-16T11:42:35.337Z,1015.61
2022-12-16T11:44:35.709Z,1015.5
2022-12-16T11:46:35.315Z,1015.5
2022-12-16T11:48:35.390Z,1015.42
2022-12-16T11:50:35.849Z,1015.42
2022-12-16T11:53:09.604Z,1015.43
2022-12-16T11:54:35.311Z,1015.43
2022-12-16T11:56:49.864Z,1015.43
2022-12-16T11:58:35.272Z,1015.43
2022-12-16T12:00:39.188Z,1015.39
2022-12-16T12:02:35.706Z,1015.39
2022-12-16T12:04:36.104Z,1015.39
2022-12-16T12:06:35.680Z,1015.39
2022-12-16T12:08:35.667Z,1015.34
2022-12-16T12:10:35.231Z,1015.34
2022-12-16T12:12:35.575Z,1015.53
2022-12-16T12:14:36.202Z,1015.53
2022-12-16T12:16:36.059Z,1015.61
2022-12-16T12:18:36.020Z,1015.61
2022-12-16T12:20:35.975Z,1015.59
2022-12-16T12:22:35.229Z,1015.59
2022-12-16T12:24:35.559Z,1015.63
2022-12-16T12:26:35.887Z,1015.63
2022-12-16T12:28:35.307Z,1015.6
2022-12-16T12:30:39.242Z,1015.6
2022-12-16T12:32:35.728Z,1015.64
2022-12-16T12:34:35.956Z,1015.64
2022-12-16T12:36:37.999Z,1015.67
2022-12-16T12:38:35.641Z,1015.67
2022-12-16T12:40:35.943Z,1015.71
2022-12-16T12:42:35.325Z,1015.71
2022-12-16T12:44:42.427Z,1015.73
2022-12-16T12:46:36.375Z,1015.73
2022-12-16T12:48:35.373Z,1015.56
2022-12-16T12:50:35.950Z,1015.56
2022-12-16T12:52:35.874Z,1015.79
2022-12-16T12:54:40.043Z,1015.79
2022-12-16T12:56:35.508Z,1015.76
2022-12-16T12:58:35.683Z,1015.76
2022-12-16T13:00:38.533Z,1015.73
2022-12-16T13:02:36.611Z,1015.75
2022-12-16T13:04:35.987Z,1015.75
2022-12-16T13:06:35.893Z,1015.87
2022-12-16T13:08:35.120Z,1015.87
2022-12-16T13:10:35.945Z,1015.83
2022-12-16T13:12:35.808Z,1015.83
2022-12-16T13:14:35.805Z,1015.76
2022-12-16T13:16:35.405Z,1015.76
2022-12-16T13:18:35.408Z,1015.89
2022-12-16T13:20:35.693Z,1015.89
2022-12-16T13:22:35.784Z,1015.82
2022-12-16T13:24:35.988Z,1015.82
2022-12-16T13:26:35.232Z,1015.86
2022-12-16T13:28:35.746Z,1015.86
2022-12-16T13:30:35.844Z,1015.96
2022-12-16T13:32:35.506Z,1015.96
2022-12-16T13:34:35.540Z,1015.97
2022-12-16T13:36:35.858Z,1015.97
2022-12-16T13:38:35.621Z,1015.9
2022-12-16T13:40:35.851Z,1015.9
2022-12-16T13:42:35.207Z,1015.91
2022-12-16T13:44:35.466Z,1015.91
2022-12-16T13:46:36.011Z,1015.95
2022-12-16T13:48:36.055Z,1015.95
2022-12-16T13:50:35.330Z,1015.93
2022-12-16T13:52:35.677Z,1015.93
2022-12-16T13:54:36.034Z,1016.03
2022-12-16T13:56:35.253Z,1016.03
2022-12-16T13:58:35.669Z,1015.98
2022-12-16T14:00:44.577Z,1015.98
2022-12-16T14:02:36.708Z,1016.1
2022-12-16T14:04:35.411Z,1016.1
2022-12-16T14:06:35.730Z,1016.09
2022-12-16T14:08:35.344Z,1016.09
2022-12-16T14:10:35.680Z,1016.17
2022-12-16T14:12:35.936Z,1016.17
2022-12-16T14:14:35.167Z,1016.28
2022-12-16T14:16:35.782Z,1016.28
2022-12-16T14:18:40.569Z,1016.29
2022-12-16T14:20:35.991Z,1016.29
2022-12-16T14:22:35.262Z,1016.28
2022-12-16T14:24:36.377Z,1016.28
2022-12-16T14:26:35.212Z,1016.36
2022-12-16T14:28:35.713Z,1016.36
2022-12-16T14:30:35.939Z,1016.45
2022-12-16T14:32:35.268Z,1016.45
2022-12-16T14:34:35.200Z,1016.48
2022-12-16T14:36:35.624Z,1016.48
2022-12-16T14:38:35.836Z,1016.56
2022-12-16T14:40:35.245Z,1016.56
2022-12-16T14:42:35.531Z,1016.62
2022-12-16T14:44:35.892Z,1016.62
2022-12-16T14:46:35.524Z,1016.61
2022-12-16T14:48:35.644Z,1016.61
2022-12-16T14:50:35.778Z,1016.71
2022-12-16T14:52:35.967Z,1016.71
2022-12-16T14:54:35.432Z,1016.73
2022-12-16T14:56:35.723Z,1016.73
2022-12-16T14:58:35.978Z,1016.84
2022-12-16T15:00:38.960Z,1016.84
2022-12-16T15:02:37.542Z,1016.88
2022-12-16T15:04:36.807Z,1016.88
2022-12-16T15:06:35.496Z,1016.91
2022-12-16T15:08:36.436Z,1016.91
2022-12-16T15:10:35.955Z,1016.99
2022-12-16T15:12:35.230Z,1016.99
2022-12-16T15:14:37.874Z,1016.98
2022-12-16T15:16:36.196Z,1016.98
2022-12-16T15:20:37.833Z,1016.98
2022-12-16T15:24:35.983Z,1016.97
2022-12-16T15:28:35.442Z,1017.14
2022-12-16T15:32:37.679Z,1017.19
2022-12-16T15:36:35.718Z,1017.41
2022-12-16T15:40:35.379Z,1017.27
2022-12-16T15:44:35.282Z,1017.27
2022-12-16T15:48:35.770Z,1017.34
2022-12-16T15:52:35.414Z,1017.4
2022-12-16T15:56:39.193Z,1017.43
2022-12-16T16:00:38.646Z,1017.34
2022-12-16T16:04:36.086Z,1017.48
2022-12-16T16:08:39.688Z,1017.54
2022-12-16T16:12:35.217Z,1017.55
2022-12-16T16:16:36.347Z,1017.5
2022-12-16T16:20:37.966Z,1017.59
2022-12-16T16:24:35.079Z,1017.66
2022-12-16T16:28:35.959Z,1017.71
2022-12-16T16:32:38.430Z,1017.76
2022-12-16T16:36:35.405Z,1017.69
2022-12-16T16:40:35.139Z,1017.82
2022-12-16T16:44:42.035Z,1017.85
2022-12-16T16:48:35.669Z,1017.85
2022-12-16T16:52:35.332Z,1017.89
2022-12-16T16:56:42.655Z,1018.03
2022-12-16T17:00:38.967Z,1018.05
2022-12-16T17:04:36.381Z,1018.1
2022-12-16T17:08:35.465Z,1018.17
2022-12-16T17:12:35.081Z,1018.11
2022-12-16T17:16:36.032Z,1018.26
2022-12-16T17:20:35.826Z,1018.23
2022-12-16T17:24:35.522Z,1018.27
2022-12-16T17:28:35.739Z,1018.38
2022-12-16T17:32:35.481Z,1018.32
2022-12-16T17:36:42.781Z,1018.42
2022-12-16T17:40:35.819Z,1018.42
2022-12-16T17:44:35.575Z,1018.42
2022-12-16T17:48:35.106Z,1018.42
2022-12-16T17:52:35.929Z,1018.39
2022-12-16T17:56:35.104Z,1018.52
2022-12-16T18:00:40.195Z,1018.45
2022-12-16T18:04:36.312Z,1018.55
2022-12-16T18:08:35.913Z,1018.6
2022-12-16T18:12:35.550Z,1018.64
2022-12-16T18:16:35.563Z,1018.69
2022-12-16T18:20:35.868Z,1018.74
2022-12-16T18:24:35.180Z,1018.78
2022-12-16T18:28:36.030Z,1018.78
2022-12-16T18:32:35.666Z,1018.78
2022-12-16T18:36:35.200Z,1018.82
2022-12-16T18:40:35.675Z,1018.9
2022-12-16T18:44:35.395Z,1018.82
2022-12-16T18:48:35.900Z,1018.76
2022-12-16T18:52:35.634Z,1018.9
2022-12-16T18:56:35.256Z,1018.95
2022-12-16T19:00:38.779Z,1018.9
2022-12-16T19:04:35.665Z,1018.9
2022-12-16T19:08:37.216Z,1018.98
2022-12-16T19:12:35.910Z,1018.93
2022-12-16T19:16:35.838Z,1018.93
2022-12-16T19:20:39.847Z,1019.01
2022-12-16T19:24:36.029Z,1019.03
2022-12-16T19:28:35.161Z,1019.05
2022-12-16T19:32:35.929Z,1019.14
2022-12-16T19:36:35.302Z,1019.21
2022-12-16T19:40:36.078Z,1019.22
2022-12-16T19:44:40.013Z,1019.2
2022-12-16T19:48:35.303Z,1019.18
2022-12-16T19:52:36.013Z,1019.29
2022-12-16T19:56:35.440Z,1019.27
2022-12-16T20:00:38.799Z,1019.34
2022-12-16T20:04:35.439Z,1019.33
2022-12-16T20:08:35.926Z,1019.4
2022-12-16T20:12:35.279Z,1019.46
2022-12-16T20:16:35.998Z,1019.43
2022-12-16T20:20:35.451Z,1019.4
2022-12-16T20:24:35.177Z,1019.56
2022-12-16T20:28:36.451Z,1019.55
2022-12-16T20:32:35.068Z,1019.66
2022-12-16T20:36:35.882Z,1019.6
2022-12-16T20:40:35.609Z,1019.56
2022-12-16T20:44:35.244Z,1019.73
2022-12-16T20:48:36.054Z,1019.73
2022-12-16T20:52:35.565Z,1019.71
2022-12-16T20:56:35.388Z,1019.71
2022-12-16T21:00:39.918Z,1019.61
2022-12-16T21:04:35.199Z,1019.8
2022-12-16T21:08:35.959Z,1019.78
2022-12-16T21:12:35.737Z,1019.74
2022-12-16T21:16:35.529Z,1019.86
2022-12-16T21:20:35.100Z,1019.86
2022-12-16T21:24:35.808Z,1019.87
2022-12-16T21:28:35.836Z,1019.92
2022-12-16T21:32:39.589Z,1020
2022-12-16T21:36:35.207Z,1020.01
2022-12-16T21:40:36.028Z,1020.04
2022-12-16T21:44:35.933Z,1020.05
2022-12-16T21:48:35.931Z,1020.12
2022-12-16T21:52:35.350Z,1020.2
2022-12-16T21:56:35.147Z,1020.14
2022-12-16T22:00:38.847Z,1020.15
2022-12-16T22:04:35.855Z,1020.24
2022-12-16T22:08:35.485Z,1020.18
2022-12-16T22:12:35.291Z,1020.25
2022-12-16T22:16:36.738Z,1020.35
2022-12-16T22:20:35.418Z,1020.37
2022-12-16T22:24:36.039Z,1020.37
2022-12-16T22:28:35.711Z,1020.31
2022-12-16T22:32:35.510Z,1020.4
2022-12-16T22:36:35.942Z,1020.43
2022-12-16T22:38:35.497Z,1020.38
2022-12-16T22:40:35.891Z,1020.38
2022-12-16T22:44:35.619Z,1020.58
2022-12-16T22:48:35.384Z,1020.56
2022-12-16T22:52:35.012Z,1020.65
2022-12-16T22:56:36.259Z,1020.77
2022-12-16T23:00:40.601Z,1020.67
2022-12-16T23:04:36.067Z,1020.76
2022-12-16T23:08:35.591Z,1020.84
2022-12-16T23:12:35.362Z,1020.79
2022-12-16T23:16:36.008Z,1020.73
2022-12-16T23:20:35.615Z,1020.72
2022-12-16T23:24:35.403Z,1020.79
2022-12-16T23:28:35.714Z,1020.72
2022-12-16T23:32:35.459Z,1020.71
2022-12-16T23:34:36.777Z,1020.71
2022-12-16T23:36:35.829Z,1020.8
2022-12-16T23:38:35.003Z,1020.8
2022-12-16T23:40:35.433Z,1020.77
2022-12-16T23:42:35.769Z,1020.77
2022-12-16T23:44:35.985Z,1020.77
2022-12-16T23:46:35.591Z,1020.77
2022-12-16T23:48:35.679Z,1020.74
2022-12-16T23:50:38.628Z,1020.74
2022-12-16T23:52:35.331Z,1020.82
2022-12-16T23:54:35.618Z,1020.82
2022-12-16T23:56:35.991Z,1020.81
2022-12-16T23:58:35.280Z,1020.81
